Time;durP1;ratioP1;P1;durP2;ratioP2;P2;SDS_P1;SDS_P2;PMS_P1;PMS_P2;Temp;Humidity;BMP_temperature;BMP_pressure;BME280_temperature;BME280_humidity;BME280_pressure;Samples;Min_cycle;Max_cycle;Signal;HPM_P1;HPM_P2
2022/09/14 00:00:30;;;;;;;8.15;4.10;;;12.90;99.90;;;;;;4990646;28;20057;-86
2022/09/14 00:02:56;;;;;;;10.13;4.10;;;12.90;99.90;;;;;;4990800;28;20404;-86
2022/09/14 00:05:22;;;;;;;9.57;3.83;;;12.80;99.90;;;;;;4990831;28;20049;-86
2022/09/14 00:07:47;;;;;;;8.43;4.15;;;12.80;99.90;;;;;;4987764;28;20348;-86
2022/09/14 00:10:13;;;;;;;8.13;4.05;;;12.80;99.90;;;;;;4987451;28;20053;-86
2022/09/14 00:12:39;;;;;;;7.35;3.88;;;12.80;99.90;;;;;;4990770;28;20050;-86
2022/09/14 00:15:06;;;;;;;8.40;3.38;;;12.80;99.90;;;;;;4989509;28;20379;-86
2022/09/14 00:17:32;;;;;;;8.32;3.28;;;12.80;99.90;;;;;;4972827;28;20125;-86
2022/09/14 00:19:57;;;;;;;8.00;3.78;;;12.90;99.90;;;;;;4989471;28;20466;-86
2022/09/14 00:22:23;;;;;;;8.50;3.17;;;12.90;99.90;;;;;;4990162;28;20073;-86
2022/09/14 00:24:49;;;;;;;8.02;3.55;;;12.90;99.90;;;;;;4983833;28;20077;-86
2022/09/14 00:27:15;;;;;;;8.80;3.45;;;12.80;99.90;;;;;;4984244;28;20034;-86
2022/09/14 00:29:40;;;;;;;9.25;3.25;;;12.80;99.90;;;;;;4980915;28;20501;-86
2022/09/14 00:32:06;;;;;;;6.80;3.17;;;12.80;99.90;;;;;;4982491;28;20047;-86
2022/09/14 00:34:33;;;;;;;6.13;3.10;;;12.80;99.90;;;;;;4979059;28;20045;-86
2022/09/14 00:36:59;;;;;;;7.55;3.00;;;12.80;99.90;;;;;;4988785;28;20117;-87
2022/09/14 00:39:26;;;;;;;9.43;3.55;;;12.80;99.90;;;;;;4981440;28;20166;-86
2022/09/14 00:41:53;;;;;;;8.25;3.10;;;12.90;99.90;;;;;;4982947;28;20057;-86
2022/09/14 00:44:18;;;;;;;9.65;2.97;;;12.90;99.90;;;;;;4987314;28;20081;-86
2022/09/14 00:46:50;;;;;;;7.35;2.67;;;12.90;99.90;;;;;;4972432;28;20082;-86
2022/09/14 00:49:20;;;;;;;6.45;2.70;;;12.90;99.90;;;;;;4988301;28;20541;-86
2022/09/14 00:51:53;;;;;;;7.65;2.92;;;12.90;99.90;;;;;;4989269;28;20046;-87
2022/09/14 00:54:19;;;;;;;8.30;2.60;;;13.00;99.90;;;;;;4974862;28;20043;-87
2022/09/14 00:56:47;;;;;;;9.32;2.80;;;13.10;99.90;;;;;;4983110;28;20038;-86
2022/09/14 00:59:18;;;;;;;8.52;2.90;;;13.10;99.90;;;;;;4989417;28;20050;-86
2022/09/14 01:01:44;;;;;;;7.47;2.90;;;13.20;99.90;;;;;;4987173;28;20552;-86
2022/09/14 01:04:10;;;;;;;6.63;3.10;;;13.20;99.90;;;;;;4970997;28;20051;-86
2022/09/14 01:07:07;;;;;;;8.38;3.00;;;13.20;99.90;;;;;;4975885;28;20046;-86
2022/09/14 01:09:54;;;;;;;9.07;3.10;;;13.30;99.90;;;;;;4994736;28;20383;-86
2022/09/14 01:12:30;;;;;;;7.47;3.08;;;13.30;99.90;;;;;;4989469;28;20058;-87
2022/09/14 01:15:14;;;;;;;7.65;2.70;;;13.20;99.90;;;;;;4989131;28;20046;-87
2022/09/14 01:17:43;;;;;;;7.35;2.90;;;13.30;99.90;;;;;;4988400;28;20391;-86
2022/09/14 01:20:18;;;;;;;6.78;2.80;;;13.30;99.90;;;;;;4988672;28;20050;-87
2022/09/14 01:22:57;;;;;;;7.35;2.75;;;13.30;99.90;;;;;;4983132;28;20061;-87
2022/09/14 01:25:40;;;;;;;8.55;2.78;;;13.20;99.90;;;;;;4980720;28;20096;-86
2022/09/14 01:28:19;;;;;;;9.65;2.92;;;13.20;99.90;;;;;;4989345;28;20034;-86
2022/09/14 01:30:46;;;;;;;8.82;3.00;;;13.20;99.90;;;;;;4990453;28;20060;-87
2022/09/14 01:33:18;;;;;;;7.82;2.78;;;13.30;99.90;;;;;;4976696;28;20073;-86
2022/09/14 01:35:51;;;;;;;8.30;3.13;;;13.30;99.90;;;;;;5001770;28;20641;-87
2022/09/14 01:38:40;;;;;;;6.50;3.03;;;13.30;99.90;;;;;;4984307;28;20181;-86
2022/09/14 01:41:12;;;;;;;9.88;3.28;;;13.30;99.90;;;;;;4987981;28;20042;-86
2022/09/14 01:43:42;;;;;;;7.18;3.00;;;13.30;99.90;;;;;;4985291;28;20043;-86
2022/09/14 01:46:25;;;;;;;8.88;3.08;;;13.30;99.90;;;;;;5004614;28;20320;-86
2022/09/14 01:49:09;;;;;;;8.23;3.00;;;13.30;99.90;;;;;;4990755;28;20043;-86
2022/09/14 01:51:52;;;;;;;7.25;3.33;;;13.30;99.90;;;;;;4996507;28;20039;-86
2022/09/14 01:54:35;;;;;;;8.57;3.10;;;13.30;99.90;;;;;;4985354;28;20058;-86
2022/09/14 01:57:31;;;;;;;9.57;3.22;;;13.20;99.90;;;;;;4980183;28;20470;-86
2022/09/14 02:00:02;;;;;;;6.75;2.97;;;13.20;99.90;;;;;;4968313;28;20050;-86
2022/09/14 02:02:36;;;;;;;7.18;2.97;;;13.10;99.90;;;;;;4973217;28;20042;-86
2022/09/14 02:05:09;;;;;;;8.00;3.38;;;13.20;99.90;;;;;;4988677;28;20073;-87
2022/09/14 02:07:36;;;;;;;6.78;3.22;;;13.20;99.90;;;;;;4987554;28;20042;-87
2022/09/14 02:10:03;;;;;;;7.18;3.78;;;13.20;99.90;;;;;;4987660;28;20046;-87
2022/09/14 02:12:29;;;;;;;7.18;3.58;;;13.10;99.90;;;;;;4980532;28;20395;-87
2022/09/14 02:14:55;;;;;;;5.78;3.05;;;13.10;99.90;;;;;;4985067;28;20045;-87
2022/09/14 02:17:21;;;;;;;7.70;3.60;;;13.10;99.90;;;;;;4986023;28;20433;-87
2022/09/14 02:19:54;;;;;;;9.60;3.60;;;13.10;99.90;;;;;;4991073;28;20482;-87
2022/09/14 02:22:19;;;;;;;8.13;3.60;;;13.10;99.90;;;;;;4993050;28;20097;-86
2022/09/14 02:24:46;;;;;;;7.78;4.07;;;13.10;99.90;;;;;;4991213;28;20082;-86
2022/09/14 02:27:12;;;;;;;8.23;4.10;;;13.00;99.90;;;;;;4991160;28;20074;-86
2022/09/14 02:29:37;;;;;;;6.90;4.25;;;13.00;99.90;;;;;;4987826;28;20092;-86
2022/09/14 02:32:11;;;;;;;10.77;5.03;;;13.00;99.90;;;;;;4972736;28;20307;-86
2022/09/14 02:35:06;;;;;;;7.75;4.53;;;13.00;99.90;;;;;;4988327;28;20391;-87
2022/09/14 02:37:41;;;;;;;8.55;4.68;;;12.90;99.90;;;;;;4992819;28;20046;-86
2022/09/14 02:40:26;;;;;;;6.97;4.20;;;12.90;99.90;;;;;;4991327;28;20042;-86
2022/09/14 02:43:17;;;;;;;9.55;4.50;;;12.90;99.90;;;;;;4990036;28;20054;-86
2022/09/14 02:46:00;;;;;;;9.15;4.18;;;12.80;99.90;;;;;;4984463;28;20089;-87
2022/09/14 02:49:03;;;;;;;7.85;4.30;;;12.80;99.90;;;;;;4971357;28;20050;-86
2022/09/14 02:51:44;;;;;;;8.40;4.40;;;12.80;99.90;;;;;;4971996;28;20046;-87
2022/09/14 02:54:16;;;;;;;7.93;4.22;;;12.80;99.90;;;;;;4979286;28;20057;-86
2022/09/14 02:56:43;;;;;;;8.20;4.68;;;12.80;99.90;;;;;;4982650;28;20046;-87
2022/09/14 02:59:09;;;;;;;8.48;4.70;;;12.80;99.90;;;;;;4981247;28;20438;-86
2022/09/14 03:01:35;;;;;;;10.32;4.63;;;12.80;99.90;;;;;;4978543;28;20495;-88
2022/09/14 03:04:01;;;;;;;8.93;4.60;;;12.80;99.90;;;;;;4987828;28;20038;-87
2022/09/14 03:06:27;;;;;;;7.47;4.22;;;12.70;99.90;;;;;;4991736;28;20045;-85
2022/09/14 03:08:52;;;;;;;9.02;4.70;;;12.80;99.90;;;;;;4987095;28;20046;-86
2022/09/14 03:11:18;;;;;;;9.10;4.65;;;12.80;99.90;;;;;;4980311;28;20470;-86
2022/09/14 03:13:43;;;;;;;8.85;4.93;;;12.80;99.90;;;;;;4986303;28;20380;-86
2022/09/14 03:16:12;;;;;;;9.15;4.25;;;12.80;99.90;;;;;;4990858;28;20074;-87
2022/09/14 03:18:38;;;;;;;9.23;5.00;;;12.80;99.90;;;;;;4990359;28;20451;-87
2022/09/14 03:21:08;;;;;;;9.90;4.70;;;12.80;99.90;;;;;;4985111;28;20086;-88
2022/09/14 03:23:39;;;;;;;8.73;4.60;;;12.90;99.90;;;;;;4971171;28;20126;-85
2022/09/14 03:26:10;;;;;;;8.30;4.68;;;12.80;99.90;;;;;;5002333;28;20039;-85
2022/09/14 03:28:36;;;;;;;;;;;12.80;99.90;;;;;;4972492;28;20484;-86
2022/09/14 03:31:04;;;;;;;10.48;4.82;;;12.70;99.90;;;;;;4970475;28;19949;-86
2022/09/14 03:33:30;;;;;;;9.73;4.95;;;12.80;99.90;;;;;;5006676;28;20387;-86
2022/09/14 03:35:56;;;;;;;7.78;4.82;;;12.90;99.90;;;;;;4988282;28;20034;-86
2022/09/14 03:38:22;;;;;;;9.15;5.45;;;12.90;99.90;;;;;;4992360;28;20093;-86
2022/09/14 03:40:47;;;;;;;8.35;4.75;;;13.00;99.90;;;;;;4981147;28;20038;-86
2022/09/14 03:43:13;;;;;;;8.85;5.22;;;13.00;99.90;;;;;;4987571;28;20034;-84
2022/09/14 03:45:39;;;;;;;9.27;4.55;;;13.10;99.90;;;;;;5005973;28;20112;-84
2022/09/14 03:48:06;;;;;;;8.75;4.55;;;13.10;99.90;;;;;;4990024;28;20034;-84
2022/09/14 03:50:32;;;;;;;9.05;4.53;;;13.10;99.90;;;;;;4987454;28;20045;-84
2022/09/14 03:52:58;;;;;;;9.10;4.38;;;13.10;99.90;;;;;;4990940;28;20368;-84
2022/09/14 03:55:24;;;;;;;9.40;4.70;;;13.20;99.90;;;;;;4988992;28;20046;-83
2022/09/14 03:57:53;;;;;;;8.00;4.53;;;13.20;99.90;;;;;;4990126;28;20514;-84
2022/09/14 04:00:19;;;;;;;8.85;4.95;;;13.20;99.90;;;;;;4989103;28;20066;-84
2022/09/14 04:02:45;;;;;;;9.10;5.20;;;13.30;99.90;;;;;;4990179;28;20034;-84
2022/09/14 04:05:11;;;;;;;8.43;4.65;;;13.30;99.90;;;;;;4988132;28;20056;-84
2022/09/14 04:07:36;;;;;;;7.30;4.40;;;13.30;99.90;;;;;;4990392;28;20129;-84
2022/09/14 04:10:04;;;;;;;8.40;4.25;;;13.30;99.90;;;;;;4972396;28;20259;-84
2022/09/14 04:12:36;;;;;;;8.13;4.22;;;13.30;99.90;;;;;;4981664;28;20051;-84
2022/09/14 04:15:06;;;;;;;9.57;4.43;;;13.40;99.90;;;;;;5001256;28;20039;-83
2022/09/14 04:17:31;;;;;;;7.18;4.28;;;13.40;99.90;;;;;;5004045;28;20050;-84
2022/09/14 04:19:57;;;;;;;7.97;4.20;;;13.40;99.90;;;;;;4990688;28;20043;-83
2022/09/14 04:22:22;;;;;;;7.82;4.15;;;13.40;99.90;;;;;;4990114;28;20525;-84
2022/09/14 04:24:49;;;;;;;9.20;4.15;;;13.40;99.90;;;;;;4989046;28;20070;-84
2022/09/14 04:27:14;;;;;;;8.20;4.40;;;13.50;99.90;;;;;;4989200;28;20046;-84
2022/09/14 04:29:40;;;;;;;7.15;4.15;;;13.50;99.90;;;;;;4978086;28;20050;-83
2022/09/14 04:32:06;;;;;;;8.25;3.97;;;13.50;99.90;;;;;;5001288;28;20078;-84
2022/09/14 04:34:31;;;;;;;10.90;3.97;;;13.50;99.90;;;;;;4969066;28;20042;-84
2022/09/14 04:36:57;;;;;;;10.88;4.28;;;13.50;99.90;;;;;;4971005;28;20081;-84
2022/09/14 04:39:23;;;;;;;9.65;3.97;;;13.50;99.90;;;;;;4972807;28;20073;-84
2022/09/14 04:41:48;;;;;;;9.13;4.07;;;13.50;99.90;;;;;;4985093;28;20042;-84
2022/09/14 04:44:14;;;;;;;8.82;4.05;;;13.60;99.90;;;;;;4974433;28;20042;-83
2022/09/14 04:46:41;;;;;;;7.07;3.83;;;13.60;99.90;;;;;;4987903;28;20122;-83
2022/09/14 04:49:07;;;;;;;9.63;4.22;;;13.60;99.90;;;;;;4988191;28;20046;-83
2022/09/14 04:51:34;;;;;;;7.25;3.90;;;13.60;99.90;;;;;;4981052;28;20039;-85
2022/09/14 04:54:01;;;;;;;8.65;4.32;;;13.60;99.90;;;;;;4976720;28;20085;-84
2022/09/14 04:56:29;;;;;;;7.97;3.80;;;13.70;99.90;;;;;;4986635;28;20444;-84
2022/09/14 04:58:58;;;;;;;7.68;3.88;;;13.70;99.90;;;;;;4979065;28;20495;-85
2022/09/14 05:01:27;;;;;;;10.88;4.18;;;13.70;99.90;;;;;;4989254;28;20453;-86
2022/09/14 05:03:54;;;;;;;9.98;4.97;;;13.60;99.90;;;;;;4989060;28;20053;-85
2022/09/14 05:06:22;;;;;;;8.15;4.07;;;13.60;99.90;;;;;;4988179;28;20077;-85
2022/09/14 05:08:48;;;;;;;8.68;4.30;;;13.60;99.90;;;;;;4989770;28;20375;-86
2022/09/14 05:11:16;;;;;;;8.57;4.15;;;13.60;99.90;;;;;;4969597;28;20165;-85
2022/09/14 05:13:42;;;;;;;9.50;4.20;;;13.60;99.90;;;;;;4980495;28;20042;-85
2022/09/14 05:16:20;;;;;;;8.30;4.00;;;13.60;99.90;;;;;;4983797;28;20054;-86
2022/09/14 05:18:46;;;;;;;10.45;4.55;;;13.60;99.90;;;;;;4990405;28;20042;-84
2022/09/14 05:21:17;;;;;;;8.82;4.10;;;13.60;99.90;;;;;;4986203;28;20053;-85
2022/09/14 05:23:43;;;;;;;9.90;3.78;;;13.70;99.90;;;;;;4971661;28;20061;-85
2022/09/14 05:26:09;;;;;;;7.57;4.10;;;13.60;99.90;;;;;;4972073;28;20487;-86
2022/09/14 05:28:36;;;;;;;10.27;4.40;;;13.60;99.90;;;;;;4985949;28;20034;-86
2022/09/14 05:31:11;;;;;;;7.28;4.10;;;13.70;99.90;;;;;;4987318;28;20121;-86
2022/09/14 05:33:37;;;;;;;8.38;3.97;;;13.70;99.90;;;;;;4989559;28;20051;-85
2022/09/14 05:36:05;;;;;;;6.93;3.88;;;13.70;99.90;;;;;;4982466;28;20325;-85
2022/09/14 05:38:32;;;;;;;9.38;4.57;;;13.70;99.90;;;;;;5003072;28;20499;-85
2022/09/14 05:40:58;;;;;;;8.82;4.97;;;13.70;99.90;;;;;;4987520;28;20070;-84
2022/09/14 05:43:24;;;;;;;9.07;4.90;;;13.80;99.90;;;;;;4962350;28;20558;-86
2022/09/14 05:45:50;;;;;;;9.95;4.60;;;13.80;99.90;;;;;;4984703;28;20495;-86
2022/09/14 05:48:16;;;;;;;9.07;5.38;;;13.80;99.90;;;;;;4988436;28;20047;-85
2022/09/14 05:50:42;;;;;;;10.57;5.35;;;13.80;99.90;;;;;;4990102;28;20054;-85
2022/09/14 05:53:08;;;;;;;10.30;5.13;;;13.80;99.90;;;;;;4975149;28;20043;-85
2022/09/14 05:55:34;;;;;;;8.93;4.90;;;13.90;99.90;;;;;;5005679;28;20043;-85
2022/09/14 05:57:59;;;;;;;9.85;5.00;;;13.90;99.90;;;;;;4981978;28;20157;-86
2022/09/14 06:00:26;;;;;;;9.68;4.68;;;13.90;99.90;;;;;;4991797;28;20045;-86
2022/09/14 06:02:53;;;;;;;8.85;5.03;;;13.90;99.90;;;;;;4985143;28;20042;-85
2022/09/14 06:05:20;;;;;;;9.82;5.43;;;13.90;99.90;;;;;;4983485;28;20190;-86
2022/09/14 06:07:51;;;;;;;11.05;5.47;;;14.00;99.90;;;;;;4990148;28;20030;-85
2022/09/14 06:10:17;;;;;;;9.20;5.30;;;14.00;99.90;;;;;;4990035;28;20038;-85
2022/09/14 06:12:43;;;;;;;9.73;5.38;;;14.00;99.90;;;;;;4991117;28;20074;-85
2022/09/14 06:15:09;;;;;;;11.20;5.43;;;14.00;99.90;;;;;;4981428;28;20085;-85
2022/09/14 06:17:36;;;;;;;9.57;4.70;;;14.00;99.90;;;;;;4982536;28;20042;-85
2022/09/14 06:20:02;;;;;;;9.77;4.68;;;14.00;99.90;;;;;;4966296;28;20059;-85
2022/09/14 06:22:31;;;;;;;9.93;5.03;;;14.10;99.90;;;;;;4995721;28;20046;-84
2022/09/14 06:24:57;;;;;;;10.07;5.32;;;14.10;99.90;;;;;;4967689;28;20039;-84
2022/09/14 06:27:22;;;;;;;9.52;4.95;;;14.10;99.90;;;;;;4968962;28;20510;-85
2022/09/14 06:29:51;;;;;;;9.85;4.78;;;14.10;99.90;;;;;;4985868;28;20372;-86
2022/09/14 06:32:17;;;;;;;9.73;4.90;;;14.20;99.90;;;;;;4992352;28;20074;-85
2022/09/14 06:34:43;;;;;;;9.00;5.20;;;14.20;99.90;;;;;;4990968;28;20108;-85
2022/09/14 06:37:09;;;;;;;10.07;5.63;;;14.20;99.90;;;;;;4983409;28;20510;-85
2022/09/14 06:39:35;;;;;;;11.73;5.50;;;14.20;99.90;;;;;;4992207;28;20398;-84
2022/09/14 06:42:00;;;;;;;7.82;5.22;;;14.20;99.90;;;;;;4974826;28;20061;-85
2022/09/14 06:44:26;;;;;;;9.45;5.43;;;14.30;99.90;;;;;;4986098;28;20073;-88
2022/09/14 06:46:51;;;;;;;10.98;5.63;;;14.30;99.90;;;;;;4995269;28;20442;-88
2022/09/14 06:49:19;;;;;;;10.13;5.63;;;14.40;99.90;;;;;;5002289;28;20113;-87
2022/09/14 06:51:46;;;;;;;10.68;5.07;;;14.40;99.90;;;;;;4981669;28;20042;-89
2022/09/14 06:54:14;;;;;;;12.20;5.88;;;14.50;99.90;;;;;;4956806;28;20054;-87
2022/09/14 06:56:40;;;;;;;8.73;4.80;;;14.50;99.90;;;;;;4974431;28;20074;-87
2022/09/14 06:59:08;;;;;;;9.15;5.15;;;14.60;99.90;;;;;;4990113;28;20051;-88
2022/09/14 07:01:34;;;;;;;8.98;5.28;;;14.60;99.90;;;;;;4992123;28;20061;-88
2022/09/14 07:04:00;;;;;;;8.02;4.72;;;14.70;99.90;;;;;;4988174;28;20479;-88
2022/09/14 07:06:29;;;;;;;9.43;5.57;;;14.70;99.90;;;;;;4989830;28;20176;-87
2022/09/14 07:08:55;;;;;;;8.82;5.57;;;14.70;99.90;;;;;;4970266;28;20046;-87
2022/09/14 07:11:24;;;;;;;12.18;5.45;;;14.80;99.90;;;;;;4986970;28;20046;-87
2022/09/14 07:13:53;;;;;;;8.48;5.00;;;14.90;99.90;;;;;;4987773;28;20126;-87
2022/09/14 07:16:19;;;;;;;12.10;5.22;;;14.90;99.90;;;;;;4982518;28;20100;-88
2022/09/14 07:18:45;;;;;;;8.35;5.18;;;15.00;99.90;;;;;;4975771;28;20054;-86
2022/09/14 07:21:17;;;;;;;10.05;5.07;;;15.00;99.90;;;;;;4988023;28;20038;-87
2022/09/14 07:23:44;;;;;;;9.50;5.05;;;15.10;99.90;;;;;;4980937;28;20053;-85
2022/09/14 07:26:13;;;;;;;8.90;4.75;;;15.20;99.90;;;;;;4979592;28;20043;-87
2022/09/14 07:28:39;;;;;;;8.35;4.28;;;15.30;99.90;;;;;;4986578;28;20070;-87
2022/09/14 07:31:33;;;;;;;9.98;4.63;;;15.30;99.90;;;;;;4974225;28;20030;-86
2022/09/14 07:34:01;;;;;;;10.27;4.78;;;15.40;99.90;;;;;;4972195;28;20047;-86
2022/09/14 07:36:27;;;;;;;9.80;3.92;;;15.40;99.90;;;;;;4974765;28;20034;-88
2022/09/14 07:38:53;;;;;;;8.23;3.95;;;15.50;99.90;;;;;;4987719;28;20031;-87
2022/09/14 07:41:21;;;;;;;8.90;4.25;;;15.60;99.90;;;;;;5006535;28;20039;-87
2022/09/14 07:43:51;;;;;;;9.65;4.50;;;15.70;99.90;;;;;;4983501;28;20038;-87
2022/09/14 07:46:17;;;;;;;9.88;4.03;;;15.60;99.90;;;;;;4994533;28;20031;-88
2022/09/14 07:48:43;;;;;;;7.63;4.25;;;15.80;99.90;;;;;;4994167;28;20077;-88
2022/09/14 07:51:10;;;;;;;10.40;4.55;;;15.80;99.90;;;;;;4990865;28;20042;-89
2022/09/14 07:53:38;;;;;;;8.02;4.20;;;16.00;99.90;;;;;;4988890;28;20030;-88
2022/09/14 07:56:04;;;;;;;9.85;3.95;;;16.00;99.90;;;;;;4987852;28;20161;-88
2022/09/14 07:58:30;;;;;;;9.95;4.30;;;16.00;99.90;;;;;;4971939;28;20038;-89
2022/09/14 08:01:04;;;;;;;7.47;3.55;;;16.10;99.90;;;;;;5004745;28;20402;-89
2022/09/14 08:03:30;;;;;;;9.15;4.00;;;16.20;99.90;;;;;;4990445;28;20046;-90
2022/09/14 08:06:05;;;;;;;7.82;3.97;;;16.30;99.90;;;;;;4983844;28;20394;-89
2022/09/14 08:08:32;;;;;;;6.85;2.90;;;16.30;99.90;;;;;;4989548;28;20043;-89
2022/09/14 08:11:04;;;;;;;7.68;2.30;;;16.40;99.90;;;;;;4989005;28;20035;-90
2022/09/14 08:13:31;;;;;;;5.65;2.20;;;16.50;99.90;;;;;;4979097;28;20039;-89
2022/09/14 08:16:00;;;;;;;7.13;2.28;;;16.60;99.90;;;;;;4988166;28;20125;-89
2022/09/14 08:18:27;;;;;;;5.88;2.42;;;16.60;99.90;;;;;;4987150;28;20109;-87
2022/09/14 08:20:53;;;;;;;6.15;2.60;;;16.70;99.90;;;;;;4989405;28;20042;-89
2022/09/14 08:23:18;;;;;;;7.13;2.65;;;16.80;99.90;;;;;;4988421;28;20649;-88
2022/09/14 08:25:44;;;;;;;6.43;2.65;;;16.80;99.90;;;;;;4988745;28;20450;-88
2022/09/14 08:28:10;;;;;;;5.80;2.22;;;16.80;99.90;;;;;;4982888;28;20039;-88
2022/09/14 08:30:35;;;;;;;6.18;2.20;;;16.90;99.90;;;;;;4987539;28;20030;-88
2022/09/14 08:33:01;;;;;;;5.97;2.30;;;17.00;99.90;;;;;;4989137;28;20078;-90
2022/09/14 08:35:26;;;;;;;7.15;2.28;;;17.10;99.90;;;;;;4990536;28;20483;-88
2022/09/14 08:37:52;;;;;;;6.70;2.00;;;17.20;99.90;;;;;;5005064;28;20034;-89
2022/09/14 08:40:18;;;;;;;6.40;1.90;;;17.30;99.90;;;;;;4981060;28;20043;-90
2022/09/14 08:42:45;;;;;;;6.88;1.67;;;17.40;99.90;;;;;;4971995;28;20042;-88
2022/09/14 08:45:15;;;;;;;7.35;1.67;;;17.40;99.90;;;;;;4989613;28;20078;-88
2022/09/14 08:47:42;;;;;;;6.70;1.85;;;17.60;99.90;;;;;;4987037;28;20043;-87
2022/09/14 08:50:20;;;;;;;3.85;1.50;;;17.60;99.90;;;;;;4989751;28;20081;-88
2022/09/14 08:52:48;;;;;;;6.45;1.67;;;17.70;99.90;;;;;;4984662;28;20130;-89
2022/09/14 08:55:27;;;;;;;7.32;1.67;;;17.80;99.90;;;;;;4986475;28;20092;-88
2022/09/14 08:58:15;;;;;;;5.55;1.10;;;17.80;99.90;;;;;;4953260;28;20141;-88
2022/09/14 09:01:18;;;;;;;4.65;1.20;;;17.80;99.90;;;;;;4979043;28;20082;-89
2022/09/14 09:04:21;;;;;;;6.13;1.17;;;17.80;99.90;;;;;;4984939;28;20395;-88
2022/09/14 09:07:00;;;;;;;5.03;1.17;;;17.80;99.90;;;;;;4969002;28;20568;-88
2022/09/14 09:09:44;;;;;;;5.13;1.13;;;17.80;99.90;;;;;;4974653;28;20038;-88
2022/09/14 09:12:19;;;;;;;5.38;1.30;;;17.80;99.90;;;;;;4990622;28;20074;-88
2022/09/14 09:14:58;;;;;;;4.97;1.08;;;17.80;99.90;;;;;;4990991;28;20045;-88
2022/09/14 09:17:32;;;;;;;7.35;1.30;;;17.80;99.90;;;;;;4995540;28;20026;-88
2022/09/14 09:20:22;;;;;;;4.82;1.13;;;17.80;99.90;;;;;;4992049;28;20356;-87
2022/09/14 09:22:57;;;;;;;5.05;1.10;;;17.70;99.90;;;;;;4995636;28;20043;-88
2022/09/14 09:25:27;;;;;;;7.25;1.17;;;17.80;99.90;;;;;;4993840;28;20049;-89
2022/09/14 09:28:01;;;;;;;5.93;1.35;;;17.80;99.90;;;;;;4991890;28;20133;-88
2022/09/14 09:30:28;;;;;;;7.30;1.23;;;17.80;99.90;;;;;;4992209;28;20042;-89
2022/09/14 09:32:55;;;;;;;5.25;1.00;;;17.80;99.90;;;;;;4976224;28;20402;-88
2022/09/14 09:35:23;;;;;;;7.72;1.20;;;17.90;99.90;;;;;;4992391;28;20455;-89
2022/09/14 09:37:49;;;;;;;7.40;1.40;;;17.90;99.90;;;;;;4987794;28;20039;-88
2022/09/14 09:40:18;;;;;;;7.85;1.40;;;17.90;99.90;;;;;;4973934;28;20193;-89
2022/09/14 09:43:08;;;;;;;7.07;1.50;;;17.90;99.90;;;;;;4989846;28;20052;-89
2022/09/14 09:46:02;;;;;;;5.80;1.30;;;18.00;99.90;;;;;;4984256;28;20045;-89
2022/09/14 09:48:37;;;;;;;4.28;1.00;;;18.00;99.90;;;;;;4989749;28;20041;-87
2022/09/14 09:51:08;;;;;;;5.13;1.00;;;18.10;99.90;;;;;;4982007;28;20402;-87
2022/09/14 09:53:36;;;;;;;;;;;18.10;99.90;;;;;;4986929;28;20077;-88
2022/09/14 09:56:02;;;;;;;6.65;1.00;;;18.10;99.90;;;;;;4976411;28;19922;-88
2022/09/14 09:58:29;;;;;;;5.60;1.10;;;18.30;99.90;;;;;;4985989;28;20047;-89
2022/09/14 10:01:21;;;;;;;7.40;1.23;;;18.30;99.90;;;;;;4974591;28;20065;-89
2022/09/14 10:04:16;;;;;;;3.60;0.80;;;18.40;99.90;;;;;;5002475;28;20125;-91
2022/09/14 10:06:47;;;;;;;7.30;1.02;;;18.40;99.90;;;;;;4968909;28;20038;-89
2022/09/14 10:09:28;;;;;;;5.72;1.00;;;18.50;99.90;;;;;;4994716;28;20360;-90
2022/09/14 10:12:03;;;;;;;4.32;0.80;;;18.50;99.90;;;;;;4997540;28;20116;-91
2022/09/14 10:14:34;;;;;;;6.30;0.90;;;18.50;99.90;;;;;;5008575;28;20034;-91
2022/09/14 10:17:05;;;;;;;4.38;0.95;;;18.50;99.90;;;;;;4976648;28;20129;-92
2022/09/14 10:19:32;;;;;;;6.18;1.10;;;18.60;99.90;;;;;;4994092;28;20042;-91
2022/09/14 10:22:04;;;;;;;5.18;0.90;;;18.70;99.90;;;;;;4981063;28;20045;-92
2022/09/14 10:24:33;;;;;;;7.60;1.20;;;18.90;99.90;;;;;;5008767;28;20042;-93
2022/09/14 10:26:59;;;;;;;6.85;1.10;;;19.20;99.90;;;;;;4994809;28;20518;-89
2022/09/14 10:29:34;;;;;;;4.25;0.90;;;19.20;99.90;;;;;;4993156;28;20613;-90
2022/09/14 10:32:17;;;;;;;3.92;0.90;;;19.30;99.90;;;;;;4973476;28;20145;-89
2022/09/14 10:34:42;;;;;;;7.47;1.38;;;19.30;99.90;;;;;;4992838;28;20047;-92
2022/09/14 10:37:30;;;;;;;4.07;1.08;;;19.30;99.90;;;;;;4977149;28;20506;-91
2022/09/14 10:40:16;;;;;;;6.35;1.10;;;19.30;99.90;;;;;;4994264;28;20082;-89
2022/09/14 10:43:03;;;;;;;5.60;1.05;;;19.20;99.90;;;;;;4986068;28;20038;-91
2022/09/14 10:45:39;;;;;;;5.40;1.20;;;19.20;99.90;;;;;;4963711;28;20051;-90
2022/09/14 10:48:21;;;;;;;5.10;1.10;;;19.20;99.90;;;;;;4972069;28;20054;-89
2022/09/14 10:50:47;;;;;;;4.63;1.23;;;19.10;99.90;;;;;;4988571;28;20514;-88
2022/09/14 10:53:35;;;;;;;6.78;1.23;;;19.10;99.90;;;;;;4991244;28;20101;-88
2022/09/14 10:56:07;;;;;;;7.82;1.20;;;19.10;99.90;;;;;;4993380;28;20053;-88
2022/09/14 10:59:05;;;;;;;8.23;1.40;;;19.10;99.90;;;;;;5007472;28;20048;-88
2022/09/14 11:01:36;;;;;;;5.80;1.05;;;19.10;99.90;;;;;;4951854;28;20055;-88
2022/09/14 11:04:07;;;;;;;5.78;1.10;;;19.10;99.90;;;;;;4923502;29;20078;-89
2022/09/14 11:06:54;;;;;;;6.53;1.13;;;19.10;99.90;;;;;;4928710;29;20043;-88
2022/09/14 11:09:35;;;;;;;6.95;1.40;;;19.10;99.90;;;;;;4934934;29;20042;-88
2022/09/14 11:12:05;;;;;;;5.57;1.10;;;19.00;99.90;;;;;;4931409;29;20131;-88
2022/09/14 11:14:55;;;;;;;6.85;1.15;;;19.00;99.90;;;;;;4938330;29;20055;-88
2022/09/14 11:17:36;;;;;;;6.32;1.10;;;18.90;99.90;;;;;;4940253;29;20167;-88
2022/09/14 11:20:21;;;;;;;5.43;1.20;;;18.90;99.90;;;;;;4933862;29;20059;-88
2022/09/14 11:23:29;;;;;;;6.10;1.08;;;18.90;99.90;;;;;;4948277;29;20045;-88
2022/09/14 11:26:09;;;;;;;4.20;1.10;;;18.90;99.90;;;;;;4904847;29;20074;-89
2022/09/14 11:29:01;;;;;;;4.47;1.10;;;19.00;99.90;;;;;;4926938;28;20047;-90
2022/09/14 11:31:40;;;;;;;5.63;1.40;;;19.00;99.90;;;;;;4925385;29;20051;-89
2022/09/14 11:34:26;;;;;;;7.82;1.55;;;19.10;99.90;;;;;;4935049;29;20051;-88
2022/09/14 11:36:57;;;;;;;4.85;0.93;;;19.20;99.90;;;;;;4949368;29;20074;-89
2022/09/14 11:39:29;;;;;;;7.03;1.50;;;19.20;99.90;;;;;;4987341;28;20047;-89
2022/09/14 11:42:00;;;;;;;6.35;1.20;;;19.40;99.90;;;;;;4991443;28;20038;-88
2022/09/14 11:44:34;;;;;;;5.85;1.23;;;19.40;99.90;;;;;;4972677;28;20129;-88
2022/09/14 11:47:05;;;;;;;6.28;1.17;;;19.40;99.90;;;;;;5004165;28;20035;-89
2022/09/14 11:50:15;;;;;;;4.93;1.23;;;19.40;99.90;;;;;;5002284;28;20058;-90
2022/09/14 11:52:41;;;;;;;7.15;1.17;;;19.40;99.90;;;;;;4995823;28;20394;-89
2022/09/14 11:55:14;;;;;;;6.57;1.38;;;19.40;99.90;;;;;;4991799;28;20038;-89
2022/09/14 11:57:44;;;;;;;6.47;1.15;;;19.40;99.90;;;;;;4994153;28;20026;-90
2022/09/14 12:00:19;;;;;;;7.00;1.13;;;19.50;99.90;;;;;;4993670;28;20129;-88
2022/09/14 12:03:10;;;;;;;6.72;1.58;;;19.50;99.90;;;;;;4991538;28;20046;-88
2022/09/14 12:05:36;;;;;;;5.65;1.17;;;19.60;99.90;;;;;;4992678;28;20035;-87
2022/09/14 12:08:22;;;;;;;4.72;1.10;;;19.70;99.90;;;;;;4992068;28;20513;-89
2022/09/14 12:11:01;;;;;;;10.40;1.38;;;19.80;99.90;;;;;;4991818;28;20073;-90
2022/09/14 12:13:27;;;;;;;4.78;1.20;;;19.80;99.90;;;;;;4991773;28;20038;-89
2022/09/14 12:16:08;;;;;;;6.93;1.15;;;19.90;99.90;;;;;;4971393;28;20495;-89
2022/09/14 12:18:40;;;;;;;6.30;1.08;;;19.90;99.90;;;;;;4990945;28;20050;-89
2022/09/14 12:21:30;;;;;;;6.40;1.20;;;20.00;99.90;;;;;;4979557;28;20035;-89
2022/09/14 12:23:56;;;;;;;6.38;1.15;;;20.00;99.90;;;;;;4998756;28;20136;-89
2022/09/14 12:26:22;;;;;;;5.18;1.10;;;20.10;99.90;;;;;;5000997;28;20065;-89
2022/09/14 12:28:49;;;;;;;6.72;1.23;;;20.00;99.90;;;;;;5002126;28;20084;-90
2022/09/14 12:31:36;;;;;;;6.90;1.50;;;20.00;99.90;;;;;;4987887;28;20113;-92
2022/09/14 12:34:18;;;;;;;5.15;1.17;;;20.10;99.90;;;;;;4999730;28;20388;-90
2022/09/14 12:36:44;;;;;;;5.60;1.10;;;20.00;99.90;;;;;;4986977;28;20128;-89
2022/09/14 12:39:22;;;;;;;5.50;1.25;;;20.00;99.90;;;;;;4990519;28;20078;-91
2022/09/14 12:41:48;;;;;;;7.22;1.40;;;20.10;99.90;;;;;;4992422;28;20390;-91
2022/09/14 12:44:34;;;;;;;5.78;1.45;;;20.00;99.90;;;;;;4978777;28;20042;-89
2022/09/14 12:47:34;;;;;;;5.20;1.23;;;20.00;99.90;;;;;;4977502;28;20084;-87
2022/09/14 12:50:18;;;;;;;4.95;1.35;;;20.00;99.90;;;;;;4933570;29;20069;-88
2022/09/14 12:52:57;;;;;;;6.63;1.40;;;20.00;99.90;;;;;;4933020;29;20229;-88
2022/09/14 12:55:47;;;;;;;6.03;1.17;;;20.00;99.90;;;;;;4948722;29;20122;-88
2022/09/14 12:58:42;;;;;;;7.47;1.25;;;20.00;99.90;;;;;;4947220;29;20039;-88
2022/09/14 13:01:32;;;;;;;5.68;1.30;;;20.00;99.90;;;;;;4916481;29;20055;-87
2022/09/14 13:03:58;;;;;;;6.07;1.20;;;20.00;99.90;;;;;;4911285;29;20060;-88
2022/09/14 13:06:41;;;;;;;4.13;1.33;;;20.00;99.90;;;;;;4894143;29;20051;-88
2022/09/14 13:09:21;;;;;;;5.90;1.10;;;20.00;99.90;;;;;;4895883;29;20393;-87